createdAt,value
2022-09-22T00:01:22.945Z,99.90
2022-09-22T00:03:53.954Z,99.90
2022-09-22T00:06:24.766Z,99.90
2022-09-22T00:09:00.818Z,99.90
2022-09-22T00:11:31.493Z,99.90
2022-09-22T00:14:01.811Z,99.90
2022-09-22T00:16:42.460Z,99.90
2022-09-22T00:19:13.425Z,99.90
2022-09-22T00:21:41.870Z,99.90
2022-09-22T00:24:09.355Z,99.90
2022-09-22T00:26:45.680Z,99.90
2022-09-22T00:29:13.814Z,99.90
2022-09-22T00:31:42.675Z,99.90
2022-09-22T00:34:18.463Z,99.90
2022-09-22T00:36:46.707Z,99.90
2022-09-22T00:39:15.265Z,99.90
2022-09-22T00:41:46.525Z,99.90
2022-09-22T00:44:36.766Z,99.90
2022-09-22T00:47:27.433Z,99.90
2022-09-22T00:50:23.539Z,99.90
2022-09-22T00:52:52.541Z,99.90
2022-09-22T00:55:29.046Z,99.90
2022-09-22T00:57:57.701Z,99.90
2022-09-22T01:00:24.986Z,99.90
2022-09-22T01:03:00.930Z,99.90
2022-09-22T01:05:34.006Z,99.90
2022-09-22T01:08:02.462Z,99.90
2022-09-22T01:10:35.971Z,99.90
2022-09-22T01:13:11.111Z,99.90
2022-09-22T01:15:53.259Z,99.90
2022-09-22T01:18:48.438Z,99.90
2022-09-22T01:21:43.400Z,99.90
2022-09-22T01:24:23.299Z,99.90
2022-09-22T01:27:35.338Z,99.90
2022-09-22T01:30:20.306Z,99.90
2022-09-22T01:33:05.522Z,99.90
2022-09-22T01:35:38.807Z,99.90
2022-09-22T01:38:30.363Z,99.90
2022-09-22T01:41:07.257Z,99.90
2022-09-22T01:43:42.057Z,99.90
2022-09-22T01:46:32.432Z,99.90
2022-09-22T01:49:05.908Z,99.90
2022-09-22T01:51:43.585Z,99.90
2022-09-22T01:54:21.417Z,99.90
2022-09-22T01:56:54.234Z,99.90
2022-09-22T01:59:26.121Z,99.90
2022-09-22T02:02:03.534Z,99.90
2022-09-22T02:04:45.868Z,99.90
2022-09-22T02:07:24.863Z,99.90
2022-09-22T02:09:58.481Z,99.90
2022-09-22T02:12:26.156Z,99.90
2022-09-22T02:14:53.640Z,99.90
2022-09-22T02:17:21.315Z,99.90
2022-09-22T02:19:49.026Z,99.90
2022-09-22T02:22:16.512Z,99.90
2022-09-22T02:24:45.998Z,99.90
2022-09-22T02:27:25.925Z,99.90
2022-09-22T02:30:04.851Z,99.90
2022-09-22T02:32:36.220Z,99.90
2022-09-22T02:35:04.525Z,99.90
2022-09-22T02:38:06.373Z,99.90
2022-09-22T02:40:45.051Z,99.90
2022-09-22T02:43:37.842Z,99.90
2022-09-22T02:46:11.587Z,99.90
2022-09-22T02:48:44.355Z,99.90
2022-09-22T02:51:14.151Z,99.90
2022-09-22T02:53:41.524Z,99.90
2022-09-22T02:56:09.318Z,99.90
2022-09-22T02:58:37.023Z,99.90
2022-09-22T03:01:04.876Z,99.90
2022-09-22T03:03:32.259Z,99.90
2022-09-22T03:05:59.707Z,99.90
2022-09-22T03:08:26.958Z,99.90
2022-09-22T03:10:54.738Z,99.90
2022-09-22T03:13:22.111Z,99.90
2022-09-22T03:15:49.999Z,99.90
2022-09-22T03:18:17.287Z,99.90
2022-09-22T03:20:44.948Z,99.90
2022-09-22T03:23:12.310Z,99.90
2022-09-22T03:25:39.761Z,99.90
2022-09-22T03:28:06.991Z,99.90
2022-09-22T03:30:35.943Z,99.90
2022-09-22T03:33:03.757Z,99.90
2022-09-22T03:35:31.153Z,99.90
2022-09-22T03:37:58.412Z,99.90
2022-09-22T03:40:26.051Z,99.90
2022-09-22T03:42:53.333Z,99.90
2022-09-22T03:45:21.009Z,99.90
2022-09-22T03:47:48.479Z,99.90
2022-09-22T03:50:15.883Z,99.90
2022-09-22T03:52:45.097Z,99.90
2022-09-22T03:55:12.794Z,99.90
2022-09-22T03:57:41.057Z,99.90
2022-09-22T04:00:09.125Z,99.90
2022-09-22T04:02:42.346Z,99.90
2022-09-22T04:05:10.496Z,99.90
2022-09-22T04:07:37.979Z,99.90
2022-09-22T04:10:06.088Z,99.90
2022-09-22T04:12:33.807Z,99.90
2022-09-22T04:15:01.185Z,99.90
2022-09-22T04:17:29.417Z,99.90
2022-09-22T04:19:57.428Z,99.90
2022-09-22T04:22:24.751Z,99.90
2022-09-22T04:24:52.191Z,99.90
2022-09-22T04:27:20.607Z,99.90
2022-09-22T04:29:48.896Z,99.90
2022-09-22T04:32:17.445Z,99.90
2022-09-22T04:34:45.345Z,99.90
2022-09-22T04:37:13.706Z,99.90
2022-09-22T04:39:41.159Z,99.90
2022-09-22T04:42:11.165Z,99.90
2022-09-22T04:44:38.578Z,99.90
2022-09-22T04:47:06.037Z,99.90
2022-09-22T04:49:33.313Z,99.90
2022-09-22T04:52:00.608Z,99.90
2022-09-22T04:54:28.084Z,99.90
2022-09-22T04:56:55.454Z,99.90
2022-09-22T04:59:23.104Z,99.90
2022-09-22T05:01:50.509Z,99.90
2022-09-22T05:04:18.359Z,99.90
2022-09-22T05:06:45.684Z,99.90
2022-09-22T05:09:13.385Z,99.90
2022-09-22T05:11:40.634Z,99.90
2022-09-22T05:14:08.266Z,99.90
2022-09-22T05:16:35.775Z,99.90
2022-09-22T05:19:03.237Z,99.90
2022-09-22T05:21:30.541Z,99.90
2022-09-22T05:23:58.038Z,99.90
2022-09-22T05:26:25.964Z,99.90
2022-09-22T05:28:53.472Z,99.90
2022-09-22T05:31:20.840Z,99.90
2022-09-22T05:33:48.232Z,99.90
2022-09-22T05:36:15.648Z,99.90
2022-09-22T05:38:43.397Z,99.90
2022-09-22T05:41:10.749Z,99.90
2022-09-22T05:43:38.056Z,99.90
2022-09-22T05:46:05.593Z,99.90
2022-09-22T05:48:33.208Z,99.90
2022-09-22T05:51:00.792Z,99.90
2022-09-22T05:53:28.528Z,99.90
2022-09-22T05:55:57.232Z,99.90
2022-09-22T05:58:24.596Z,99.90
2022-09-22T06:00:52.251Z,99.90
2022-09-22T06:03:19.858Z,99.90
2022-09-22T06:05:47.169Z,99.90
2022-09-22T06:08:14.671Z,99.90
2022-09-22T06:10:42.735Z,99.90
2022-09-22T06:13:11.401Z,99.90
2022-09-22T06:15:39.630Z,99.90
2022-09-22T06:18:13.093Z,99.90
2022-09-22T06:20:41.334Z,99.90
2022-09-22T06:23:09.196Z,99.90
2022-09-22T06:25:36.558Z,99.90
2022-09-22T06:28:06.535Z,99.90
2022-09-22T06:30:35.845Z,99.90
2022-09-22T06:33:03.762Z,99.90
2022-09-22T06:35:36.896Z,99.90
2022-09-22T06:38:07.156Z,99.90
2022-09-22T06:40:39.111Z,99.90
2022-09-22T06:43:13.051Z,99.90
2022-09-22T06:45:42.901Z,99.90
2022-09-22T06:48:11.417Z,99.90
2022-09-22T06:50:41.202Z,99.90
2022-09-22T06:53:14.053Z,99.90
2022-09-22T06:55:44.497Z,99.90
2022-09-22T06:58:13.134Z,99.90
2022-09-22T07:00:43.197Z,99.90
2022-09-22T07:03:22.782Z,99.90
2022-09-22T07:05:58.479Z,99.90
2022-09-22T07:08:26.271Z,99.90
2022-09-22T07:10:55.563Z,99.90
2022-09-22T07:13:24.302Z,99.90
2022-09-22T07:15:51.723Z,99.90
2022-09-22T07:18:19.052Z,99.90
2022-09-22T07:20:46.384Z,99.90
2022-09-22T07:23:19.216Z,99.90
2022-09-22T07:25:59.623Z,99.90
2022-09-22T07:28:31.679Z,99.90
2022-09-22T07:31:15.545Z,99.90
2022-09-22T07:33:45.004Z,99.90
2022-09-22T07:36:22.913Z,99.90
2022-09-22T07:38:52.520Z,99.90
2022-09-22T07:41:28.090Z,99.90
2022-09-22T07:44:18.148Z,99.90
2022-09-22T07:46:46.249Z,99.90
2022-09-22T07:49:15.367Z,99.90
2022-09-22T07:51:43.167Z,99.90
2022-09-22T07:54:11.150Z,99.90
2022-09-22T07:56:43.874Z,99.90
2022-09-22T07:59:13.735Z,99.90
2022-09-22T08:01:47.737Z,99.90
2022-09-22T08:04:18.983Z,99.90
2022-09-22T08:06:48.845Z,99.90
2022-09-22T08:09:16.423Z,99.90
2022-09-22T08:11:46.150Z,99.90
2022-09-22T08:14:13.393Z,99.90
2022-09-22T08:16:41.378Z,99.90
2022-09-22T08:19:12.804Z,99.90
2022-09-22T08:21:48.473Z,99.90
2022-09-22T08:24:21.808Z,99.90
2022-09-22T08:26:51.333Z,99.90
2022-09-22T08:29:18.692Z,99.90
2022-09-22T08:31:47.684Z,99.90
2022-09-22T08:34:16.701Z,99.90
2022-09-22T08:36:46.666Z,99.90
2022-09-22T08:39:14.677Z,99.90
2022-09-22T08:42:08.642Z,99.90
2022-09-22T08:44:38.388Z,99.90
2022-09-22T08:47:06.075Z,99.90
2022-09-22T08:50:12.027Z,99.90
2022-09-22T08:52:43.399Z,99.90
2022-09-22T08:55:25.345Z,99.90
2022-09-22T08:58:09.864Z,99.90
2022-09-22T09:00:42.979Z,99.80
2022-09-22T09:03:25.411Z,98.90
2022-09-22T09:06:15.822Z,99.50
2022-09-22T09:09:18.999Z,97.30
2022-09-22T09:11:58.309Z,96.30
2022-09-22T09:14:52.359Z,97.50
2022-09-22T09:17:30.842Z,98.50
2022-09-22T09:20:09.347Z,97.60
2022-09-22T09:22:45.113Z,97.20
2022-09-22T09:25:42.763Z,96.50
2022-09-22T09:28:18.912Z,98.40
2022-09-22T09:30:51.995Z,98.20
2022-09-22T09:34:14.869Z,99.10
2022-09-22T09:36:46.034Z,98.10
2022-09-22T09:39:17.132Z,99.70
2022-09-22T09:41:47.055Z,99.90
2022-09-22T09:44:39.190Z,99.90
2022-09-22T09:47:18.555Z,99.90
2022-09-22T09:49:52.544Z,99.90
2022-09-22T09:52:21.198Z,99.90
2022-09-22T09:54:49.275Z,99.90
2022-09-22T09:57:27.651Z,99.90
2022-09-22T10:00:33.777Z,99.90
2022-09-22T10:03:26.994Z,99.90
2022-09-22T10:06:03.079Z,99.90
2022-09-22T10:08:41.771Z,99.90
2022-09-22T10:11:10.610Z,99.90
2022-09-22T10:13:39.775Z,99.90
2022-09-22T10:16:21.647Z,99.90
2022-09-22T10:18:58.926Z,99.90
2022-09-22T10:21:28.408Z,99.90
2022-09-22T10:23:57.506Z,99.90
2022-09-22T10:26:30.497Z,99.90
2022-09-22T10:29:13.520Z,99.90
2022-09-22T10:31:42.375Z,99.90
2022-09-22T10:34:31.844Z,99.80
2022-09-22T10:37:04.049Z,99.80
2022-09-22T10:39:46.189Z,99.50
2022-09-22T10:42:29.259Z,99.70
2022-09-22T10:45:02.854Z,99.90
2022-09-22T10:47:40.771Z,99.90
2022-09-22T10:50:27.980Z,99.90
2022-09-22T10:53:31.421Z,99.90
2022-09-22T10:56:10.737Z,99.90
2022-09-22T10:58:41.098Z,99.90
2022-09-22T11:01:18.852Z,99.90
2022-09-22T11:04:12.804Z,99.90
2022-09-22T11:07:32.858Z,99.90
2022-09-22T11:10:59.699Z,99.90
2022-09-22T11:13:57.676Z,99.90
2022-09-22T11:16:49.360Z,99.90
2022-09-22T11:19:48.479Z,99.90
2022-09-22T11:22:34.239Z,99.90
2022-09-22T11:25:28.818Z,99.90
2022-09-22T11:28:11.280Z,99.90
2022-09-22T11:30:46.914Z,99.90
2022-09-22T11:33:33.709Z,99.90
2022-09-22T11:36:11.854Z,99.90
2022-09-22T11:39:00.035Z,99.90
2022-09-22T11:41:27.353Z,99.90
2022-09-22T11:43:59.168Z,99.90
2022-09-22T11:46:55.395Z,99.90
2022-09-22T11:49:43.161Z,99.90
2022-09-22T11:52:22.758Z,99.90
2022-09-22T11:55:23.636Z,99.90
2022-09-22T11:57:57.111Z,99.90
2022-09-22T12:00:25.038Z,99.90
2022-09-22T12:03:10.622Z,99.90
2022-09-22T12:05:54.810Z,99.90
2022-09-22T12:08:29.071Z,99.90
2022-09-22T12:10:57.358Z,99.90
2022-09-22T12:13:27.546Z,99.90
2022-09-22T12:16:18.731Z,99.90
2022-09-22T12:19:30.808Z,99.90
2022-09-22T12:22:12.605Z,99.90
2022-09-22T12:24:40.069Z,99.90
2022-09-22T12:27:12.992Z,99.90
2022-09-22T12:29:41.737Z,99.90
2022-09-22T12:32:25.214Z,99.90
2022-09-22T12:34:56.362Z,99.90
2022-09-22T12:37:34.212Z,99.90
2022-09-22T12:40:07.594Z,99.90
2022-09-22T12:42:36.823Z,99.90
2022-09-22T12:45:34.856Z,99.90
2022-09-22T12:48:29.127Z,99.90
2022-09-22T12:51:30.486Z,99.90
2022-09-22T12:54:23.915Z,99.90
2022-09-22T12:57:00.476Z,99.90
2022-09-22T13:00:06.780Z,99.90
2022-09-22T13:02:43.267Z,99.90
2022-09-22T13:05:10.607Z,99.90
2022-09-22T13:07:42.952Z,99.90
2022-09-22T13:10:25.290Z,99.90
2022-09-22T13:13:06.075Z,99.90
2022-09-22T13:15:51.350Z,99.90
2022-09-22T13:18:30.156Z,99.90
2022-09-22T13:20:59.121Z,99.90
2022-09-22T13:23:27.290Z,99.90
2022-09-22T13:25:55.356Z,99.90
2022-09-22T13:28:25.506Z,99.90
2022-09-22T13:31:17.395Z,99.90
2022-09-22T13:33:45.127Z,99.90
2022-09-22T13:36:18.215Z,99.90
2022-09-22T13:38:51.498Z,99.90
2022-09-22T13:41:24.183Z,99.90
2022-09-22T13:44:02.902Z,99.90
2022-09-22T13:46:39.576Z,99.90
2022-09-22T13:49:10.731Z,99.90
2022-09-22T13:51:38.692Z,99.90
2022-09-22T13:54:07.433Z,99.90
2022-09-22T13:56:36.498Z,99.90
2022-09-22T13:59:03.971Z,99.90
2022-09-22T14:01:31.423Z,99.90
2022-09-22T14:03:58.873Z,99.90
2022-09-22T14:06:30.837Z,99.90
2022-09-22T14:08:59.330Z,99.90
2022-09-22T14:11:33.704Z,99.90
2022-09-22T14:14:02.859Z,99.90
2022-09-22T14:16:36.509Z,99.90
2022-09-22T14:19:15.390Z,99.90
2022-09-22T14:21:51.624Z,99.90
2022-09-22T14:24:19.328Z,99.90
2022-09-22T14:26:50.161Z,99.90
2022-09-22T14:29:30.160Z,99.90
2022-09-22T14:32:13.241Z,99.90
2022-09-22T14:34:45.894Z,99.90
2022-09-22T14:37:31.880Z,99.90
2022-09-22T14:40:04.943Z,99.90
2022-09-22T14:42:34.141Z,99.90
2022-09-22T14:45:10.342Z,99.90
2022-09-22T14:47:42.811Z,99.90
2022-09-22T14:50:12.201Z,99.90
2022-09-22T14:53:02.582Z,99.90
2022-09-22T14:55:36.810Z,99.90
2022-09-22T14:58:08.515Z,99.90
2022-09-22T15:00:55.449Z,99.90
2022-09-22T15:03:29.261Z,99.90
2022-09-22T15:06:07.850Z,99.90
2022-09-22T15:08:36.106Z,99.90
2022-09-22T15:11:03.807Z,99.90
2022-09-22T15:13:50.975Z,99.90
2022-09-22T15:16:37.894Z,99.90
2022-09-22T15:19:06.299Z,99.90
2022-09-22T15:21:38.079Z,99.90
2022-09-22T15:24:06.169Z,99.90
2022-09-22T15:26:33.840Z,99.90
2022-09-22T15:29:02.840Z,99.90
2022-09-22T15:31:30.918Z,99.90
2022-09-22T15:34:01.568Z,99.90
2022-09-22T15:36:32.193Z,99.90
2022-09-22T15:39:20.825Z,99.90
2022-09-22T15:41:48.560Z,99.90
2022-09-22T15:44:16.787Z,99.90
2022-09-22T15:46:48.456Z,99.90
2022-09-22T15:49:21.113Z,99.90
2022-09-22T15:51:49.671Z,99.90
2022-09-22T15:54:22.399Z,99.90
2022-09-22T15:56:52.251Z,99.90
2022-09-22T15:59:22.920Z,99.90
2022-09-22T16:01:52.054Z,99.90
2022-09-22T16:04:20.325Z,99.90
2022-09-22T16:06:58.703Z,99.90
2022-09-22T16:09:26.206Z,99.90
2022-09-22T16:11:55.083Z,99.90
2022-09-22T16:14:25.255Z,99.90
2022-09-22T16:16:52.795Z,99.90
2022-09-22T16:19:20.505Z,99.90
2022-09-22T16:21:54.334Z,99.90
2022-09-22T16:24:22.862Z,99.90
2022-09-22T16:26:51.953Z,99.90
2022-09-22T16:29:19.471Z,99.90
2022-09-22T16:31:47.014Z,99.90
2022-09-22T16:34:14.498Z,99.90
2022-09-22T16:36:44.725Z,99.90
2022-09-22T16:39:12.091Z,99.90
2022-09-22T16:41:44.729Z,99.90
2022-09-22T16:44:12.234Z,99.90
2022-09-22T16:46:39.596Z,99.90
2022-09-22T16:49:13.052Z,99.90
2022-09-22T16:51:41.570Z,99.90
2022-09-22T16:54:13.336Z,99.90
2022-09-22T16:56:43.642Z,99.90
2022-09-22T16:59:14.492Z,99.90
2022-09-22T17:01:43.968Z,99.90
2022-09-22T17:04:13.607Z,99.90
2022-09-22T17:06:41.830Z,99.90
2022-09-22T17:09:10.579Z,99.90
2022-09-22T17:11:40.781Z,99.90
2022-09-22T17:14:12.816Z,99.90
2022-09-22T17:16:42.784Z,99.90
2022-09-22T17:19:12.639Z,99.90
2022-09-22T17:21:40.446Z,99.90
2022-09-22T17:24:09.299Z,99.90
2022-09-22T17:26:41.519Z,99.90
2022-09-22T17:29:10.031Z,99.90
2022-09-22T17:31:37.433Z,99.90
2022-09-22T17:34:04.866Z,99.90
2022-09-22T17:36:32.188Z,99.90
2022-09-22T17:39:01.070Z,99.90
2022-09-22T17:41:32.888Z,99.90
2022-09-22T17:44:03.288Z,99.90
2022-09-22T17:46:35.407Z,99.90
2022-09-22T17:49:21.122Z,99.90
2022-09-22T17:52:08.845Z,99.90
2022-09-22T17:54:59.433Z,99.90
2022-09-22T17:57:31.670Z,99.90
2022-09-22T17:59:59.874Z,99.90
2022-09-22T18:02:32.414Z,99.90
2022-09-22T18:04:59.998Z,99.90
2022-09-22T18:07:27.852Z,99.90
2022-09-22T18:09:55.642Z,99.90
2022-09-22T18:12:25.306Z,99.90
2022-09-22T18:14:55.565Z,99.90
2022-09-22T18:17:25.865Z,99.90
2022-09-22T18:19:57.788Z,99.90
2022-09-22T18:22:27.201Z,99.90
2022-09-22T18:24:56.394Z,99.90
2022-09-22T18:27:27.253Z,99.90
2022-09-22T18:29:58.750Z,99.90
2022-09-22T18:32:27.795Z,99.90
2022-09-22T18:34:56.000Z,99.90
2022-09-22T18:37:27.001Z,99.90
2022-09-22T18:39:54.878Z,99.90
2022-09-22T18:42:24.466Z,99.90
2022-09-22T18:44:52.788Z,99.90
2022-09-22T18:47:23.187Z,99.90
2022-09-22T18:49:54.192Z,99.90
2022-09-22T18:52:24.866Z,99.90
2022-09-22T18:54:54.356Z,99.90
2022-09-22T18:57:25.811Z,99.90
2022-09-22T18:59:54.185Z,99.90
2022-09-22T19:02:23.055Z,99.90
2022-09-22T19:04:54.292Z,99.90
2022-09-22T19:07:43.290Z,99.90
2022-09-22T19:10:13.857Z,99.90
2022-09-22T19:12:41.699Z,99.90
2022-09-22T19:15:18.919Z,99.90
2022-09-22T19:17:49.548Z,99.90
2022-09-22T19:20:22.126Z,99.90
2022-09-22T19:22:50.658Z,99.90
2022-09-22T19:25:20.228Z,99.90
2022-09-22T19:27:47.898Z,99.90
2022-09-22T19:30:17.710Z,99.90
2022-09-22T19:32:48.366Z,99.90
2022-09-22T19:35:15.693Z,99.90
2022-09-22T19:37:43.036Z,99.90
2022-09-22T19:40:13.844Z,99.90
2022-09-22T19:42:41.388Z,99.90
2022-09-22T19:45:09.774Z,99.90
2022-09-22T19:47:39.982Z,99.90
2022-09-22T19:50:08.187Z,99.90
2022-09-22T19:52:36.129Z,99.90
2022-09-22T19:55:04.289Z,99.90
2022-09-22T19:57:40.336Z,99.90
2022-09-22T20:00:18.409Z,99.90
2022-09-22T20:02:46.227Z,99.90
2022-09-22T20:05:20.903Z,99.90
2022-09-22T20:07:49.156Z,99.90
2022-09-22T20:10:19.157Z,99.90
2022-09-22T20:12:46.589Z,99.90
2022-09-22T20:15:15.307Z,99.90
2022-09-22T20:17:46.393Z,99.90
2022-09-22T20:20:20.368Z,99.90
2022-09-22T20:22:50.581Z,99.90
2022-09-22T20:25:27.564Z,99.90
2022-09-22T20:27:56.308Z,99.90
2022-09-22T20:30:24.507Z,99.90
2022-09-22T20:32:52.452Z,99.90
2022-09-22T20:35:22.067Z,99.90
2022-09-22T20:37:51.660Z,99.90
2022-09-22T20:40:21.607Z,99.90
2022-09-22T20:42:50.934Z,99.90
2022-09-22T20:45:21.149Z,99.90
2022-09-22T20:47:49.337Z,99.90
2022-09-22T20:50:17.259Z,99.90
2022-09-22T20:52:44.738Z,99.90
2022-09-22T20:55:12.283Z,99.90
2022-09-22T20:57:41.389Z,99.90
2022-09-22T21:00:09.961Z,99.90
2022-09-22T21:02:37.576Z,99.90
2022-09-22T21:05:05.341Z,99.90
2022-09-22T21:07:33.160Z,99.90
2022-09-22T21:10:19.160Z,99.90
2022-09-22T21:12:46.629Z,99.90
2022-09-22T21:15:14.643Z,99.90
2022-09-22T21:17:43.930Z,99.90
2022-09-22T21:20:11.533Z,99.90
2022-09-22T21:22:39.044Z,99.90
2022-09-22T21:25:06.760Z,99.90
2022-09-22T21:27:34.263Z,99.90
2022-09-22T21:30:01.713Z,99.90
2022-09-22T21:32:29.595Z,99.90
2022-09-22T21:34:57.649Z,99.90
2022-09-22T21:37:25.187Z,99.90
2022-09-22T21:39:52.629Z,99.90
2022-09-22T21:42:20.144Z,99.90
2022-09-22T21:44:48.744Z,99.90
2022-09-22T21:47:16.284Z,99.90
2022-09-22T21:49:43.661Z,99.90
2022-09-22T21:52:10.954Z,99.90
2022-09-22T21:54:38.315Z,99.90
2022-09-22T21:57:05.755Z,99.90
2022-09-22T21:59:33.048Z,99.90
2022-09-22T22:02:00.453Z,99.90
2022-09-22T22:04:27.894Z,99.90
2022-09-22T22:06:56.239Z,99.90
2022-09-22T22:09:25.468Z,99.90
2022-09-22T22:11:59.034Z,99.90
2022-09-22T22:14:32.809Z,99.90
2022-09-22T22:17:02.387Z,99.90
2022-09-22T22:19:30.080Z,99.90
2022-09-22T22:21:57.606Z,99.90
2022-09-22T22:24:29.464Z,99.90
2022-09-22T22:27:01.582Z,99.90
2022-09-22T22:29:34.919Z,99.90
2022-09-22T22:32:04.136Z,99.90
2022-09-22T22:34:31.464Z,99.90
2022-09-22T22:36:59.668Z,99.90
2022-09-22T22:39:27.681Z,99.90
2022-09-22T22:41:55.490Z,99.90
2022-09-22T22:44:22.958Z,99.90
2022-09-22T22:46:50.986Z,99.90
2022-09-22T22:49:18.515Z,99.90
2022-09-22T22:51:46.122Z,99.90
2022-09-22T22:54:14.649Z,99.90
2022-09-22T22:56:43.768Z,99.90
2022-09-22T22:59:13.574Z,99.90
2022-09-22T23:01:41.872Z,99.90
2022-09-22T23:04:11.866Z,99.90
2022-09-22T23:06:44.225Z,99.90
2022-09-22T23:09:16.198Z,99.90
2022-09-22T23:11:45.493Z,99.90
2022-09-22T23:14:13.408Z,99.90
2022-09-22T23:16:46.319Z,99.90
2022-09-22T23:19:17.086Z,99.90
2022-09-22T23:21:45.349Z,99.90
2022-09-22T23:24:19.142Z,99.90
2022-09-22T23:26:47.463Z,99.90
2022-09-22T23:29:14.843Z,99.90
2022-09-22T23:31:42.431Z,99.90
2022-09-22T23:34:09.789Z,99.90
2022-09-22T23:36:37.479Z,99.90
2022-09-22T23:39:05.182Z,99.90
2022-09-22T23:41:34.944Z,99.90
2022-09-22T23:44:03.383Z,99.90
2022-09-22T23:46:31.390Z,99.90
2022-09-22T23:49:00.437Z,99.90
2022-09-22T23:51:27.988Z,99.90
2022-09-22T23:53:55.672Z,99.90
2022-09-22T23:56:23.272Z,99.90
2022-09-22T23:58:51.664Z,99.90
